sensor_id;sensor_type;location;lat;lon;timestamp;P1;durP1;ratioP1;P2;durP2;ratioP2
15679;SDS011;15488;48.114;11.532;2023-06-10T00:02:10;6.70;;;6.10;;
15679;SDS011;15488;48.114;11.532;2023-06-10T00:04:37;6.13;;;5.63;;
15679;SDS011;15488;48.114;11.532;2023-06-10T00:07:05;6.90;;;6.20;;
15679;SDS011;15488;48.114;11.532;2023-06-10T00:09:33;6.17;;;5.63;;
15679;SDS011;15488;48.114;11.532;2023-06-10T00:12:02;7.50;;;6.00;;
15679;SDS011;15488;48.114;11.532;2023-06-10T00:14:30;6.70;;;6.00;;
15679;SDS011;15488;48.114;11.532;2023-06-10T00:16:57;6.00;;;5.47;;
15679;SDS011;15488;48.114;11.532;2023-06-10T00:19:26;6.17;;;5.57;;
15679;SDS011;15488;48.114;11.532;2023-06-10T00:21:55;6.23;;;5.63;;
15679;SDS011;15488;48.114;11.532;2023-06-10T00:24:23;8.03;;;5.70;;
15679;SDS011;15488;48.114;11.532;2023-06-10T00:26:51;7.60;;;5.67;;
15679;SDS011;15488;48.114;11.532;2023-06-10T00:29:18;5.77;;;5.27;;
15679;SDS011;15488;48.114;11.532;2023-06-10T00:31:46;6.00;;;5.40;;
15679;SDS011;15488;48.114;11.532;2023-06-10T00:34:13;5.60;;;5.10;;
15679;SDS011;15488;48.114;11.532;2023-06-10T00:36:42;8.07;;;5.37;;
15679;SDS011;15488;48.114;11.532;2023-06-10T00:39:10;5.80;;;5.30;;
15679;SDS011;15488;48.114;11.532;2023-06-10T00:41:37;5.60;;;5.10;;
15679;SDS011;15488;48.114;11.532;2023-06-10T00:44:05;5.60;;;5.10;;
15679;SDS011;15488;48.114;11.532;2023-06-10T00:46:32;5.30;;;4.80;;
15679;SDS011;15488;48.114;11.532;2023-06-10T00:49:02;4.90;;;4.40;;
15679;SDS011;15488;48.114;11.532;2023-06-10T00:51:30;5.20;;;4.70;;
15679;SDS011;15488;48.114;11.532;2023-06-10T00:53:59;5.50;;;4.87;;
15679;SDS011;15488;48.114;11.532;2023-06-10T00:56:27;5.13;;;4.63;;
15679;SDS011;15488;48.114;11.532;2023-06-10T00:58:55;5.47;;;4.90;;
15679;SDS011;15488;48.114;11.532;2023-06-10T01:01:23;5.80;;;5.20;;
15679;SDS011;15488;48.114;11.532;2023-06-10T01:03:51;6.53;;;5.00;;
15679;SDS011;15488;48.114;11.532;2023-06-10T01:06:22;5.30;;;4.90;;
15679;SDS011;15488;48.114;11.532;2023-06-10T01:09:02;5.53;;;5.03;;
15679;SDS011;15488;48.114;11.532;2023-06-10T01:11:36;4.90;;;4.50;;
15679;SDS011;15488;48.114;11.532;2023-06-10T01:14:10;5.60;;;5.07;;
15679;SDS011;15488;48.114;11.532;2023-06-10T01:16:37;5.13;;;4.63;;
15679;SDS011;15488;48.114;11.532;2023-06-10T01:19:06;5.57;;;5.07;;
15679;SDS011;15488;48.114;11.532;2023-06-10T01:21:36;5.43;;;4.93;;
15679;SDS011;15488;48.114;11.532;2023-06-10T01:24:05;5.50;;;5.10;;
15679;SDS011;15488;48.114;11.532;2023-06-10T01:26:33;5.30;;;4.80;;
15679;SDS011;15488;48.114;11.532;2023-06-10T01:29:03;5.60;;;5.10;;
15679;SDS011;15488;48.114;11.532;2023-06-10T01:31:38;5.30;;;4.90;;
15679;SDS011;15488;48.114;11.532;2023-06-10T01:34:13;5.47;;;4.97;;
15679;SDS011;15488;48.114;11.532;2023-06-10T01:36:46;5.83;;;5.27;;
15679;SDS011;15488;48.114;11.532;2023-06-10T01:39:15;5.33;;;4.93;;
15679;SDS011;15488;48.114;11.532;2023-06-10T01:41:44;6.13;;;5.20;;
15679;SDS011;15488;48.114;11.532;2023-06-10T01:44:11;5.00;;;4.60;;
15679;SDS011;15488;48.114;11.532;2023-06-10T01:46:43;5.40;;;4.90;;
15679;SDS011;15488;48.114;11.532;2023-06-10T01:49:10;5.30;;;4.80;;
15679;SDS011;15488;48.114;11.532;2023-06-10T01:51:38;5.90;;;5.40;;
15679;SDS011;15488;48.114;11.532;2023-06-10T01:54:07;5.97;;;5.30;;
15679;SDS011;15488;48.114;11.532;2023-06-10T01:56:34;5.93;;;5.43;;
15679;SDS011;15488;48.114;11.532;2023-06-10T01:59:02;6.00;;;5.40;;
15679;SDS011;15488;48.114;11.532;2023-06-10T02:01:30;6.17;;;5.57;;
15679;SDS011;15488;48.114;11.532;2023-06-10T02:03:57;6.20;;;5.60;;
15679;SDS011;15488;48.114;11.532;2023-06-10T02:06:24;6.20;;;5.60;;
15679;SDS011;15488;48.114;11.532;2023-06-10T02:08:52;5.77;;;5.27;;
15679;SDS011;15488;48.114;11.532;2023-06-10T02:11:21;6.57;;;5.60;;
15679;SDS011;15488;48.114;11.532;2023-06-10T02:13:48;6.37;;;5.73;;
15679;SDS011;15488;48.114;11.532;2023-06-10T02:16:16;6.67;;;5.97;;
15679;SDS011;15488;48.114;11.532;2023-06-10T02:18:43;6.93;;;5.70;;
15679;SDS011;15488;48.114;11.532;2023-06-10T02:21:11;6.43;;;5.83;;
15679;SDS011;15488;48.114;11.532;2023-06-10T02:23:38;6.23;;;5.50;;
15679;SDS011;15488;48.114;11.532;2023-06-10T02:26:06;6.40;;;5.80;;
15679;SDS011;15488;48.114;11.532;2023-06-10T02:28:35;6.33;;;5.73;;
15679;SDS011;15488;48.114;11.532;2023-06-10T02:31:02;6.03;;;5.53;;
15679;SDS011;15488;48.114;11.532;2023-06-10T02:33:30;5.87;;;5.37;;
15679;SDS011;15488;48.114;11.532;2023-06-10T02:35:58;6.43;;;5.83;;
15679;SDS011;15488;48.114;11.532;2023-06-10T02:38:26;6.70;;;6.03;;
15679;SDS011;15488;48.114;11.532;2023-06-10T02:40:53;6.30;;;5.70;;
15679;SDS011;15488;48.114;11.532;2023-06-10T02:43:21;6.33;;;5.73;;
15679;SDS011;15488;48.114;11.532;2023-06-10T02:45:50;6.63;;;6.03;;
15679;SDS011;15488;48.114;11.532;2023-06-10T02:48:17;6.17;;;5.57;;
15679;SDS011;15488;48.114;11.532;2023-06-10T02:50:45;6.13;;;5.63;;
15679;SDS011;15488;48.114;11.532;2023-06-10T02:53:12;6.73;;;6.13;;
15679;SDS011;15488;48.114;11.532;2023-06-10T02:55:40;6.40;;;5.80;;
15679;SDS011;15488;48.114;11.532;2023-06-10T02:58:07;6.70;;;6.10;;
15679;SDS011;15488;48.114;11.532;2023-06-10T03:00:35;7.63;;;6.43;;
15679;SDS011;15488;48.114;11.532;2023-06-10T03:03:07;6.40;;;5.87;;
15679;SDS011;15488;48.114;11.532;2023-06-10T03:05:35;6.83;;;6.17;;
15679;SDS011;15488;48.114;11.532;2023-06-10T03:08:03;7.13;;;6.37;;
15679;SDS011;15488;48.114;11.532;2023-06-10T03:10:30;7.40;;;6.70;;
15679;SDS011;15488;48.114;11.532;2023-06-10T03:12:58;7.20;;;6.20;;
15679;SDS011;15488;48.114;11.532;2023-06-10T03:15:26;7.13;;;6.43;;
15679;SDS011;15488;48.114;11.532;2023-06-10T03:17:54;7.40;;;6.70;;
15679;SDS011;15488;48.114;11.532;2023-06-10T03:20:22;7.50;;;6.70;;
15679;SDS011;15488;48.114;11.532;2023-06-10T03:22:50;7.67;;;6.97;;
15679;SDS011;15488;48.114;11.532;2023-06-10T03:25:18;7.83;;;6.97;;
15679;SDS011;15488;48.114;11.532;2023-06-10T03:27:46;7.57;;;6.80;;
15679;SDS011;15488;48.114;11.532;2023-06-10T03:30:13;7.97;;;6.90;;
15679;SDS011;15488;48.114;11.532;2023-06-10T03:32:41;7.50;;;6.70;;
15679;SDS011;15488;48.114;11.532;2023-06-10T03:35:08;7.43;;;6.73;;
15679;SDS011;15488;48.114;11.532;2023-06-10T03:37:38;8.40;;;7.60;;
15679;SDS011;15488;48.114;11.532;2023-06-10T03:40:06;7.57;;;6.77;;
15679;SDS011;15488;48.114;11.532;2023-06-10T03:42:35;7.30;;;6.60;;
15679;SDS011;15488;48.114;11.532;2023-06-10T03:45:02;8.37;;;6.90;;
15679;SDS011;15488;48.114;11.532;2023-06-10T03:47:32;7.37;;;6.67;;
15679;SDS011;15488;48.114;11.532;2023-06-10T03:50:01;7.57;;;6.80;;
15679;SDS011;15488;48.114;11.532;2023-06-10T03:52:29;7.03;;;6.43;;
15679;SDS011;15488;48.114;11.532;2023-06-10T03:54:58;7.23;;;6.63;;
15679;SDS011;15488;48.114;11.532;2023-06-10T03:57:25;7.70;;;6.73;;
15679;SDS011;15488;48.114;11.532;2023-06-10T03:59:53;7.20;;;6.50;;
15679;SDS011;15488;48.114;11.532;2023-06-10T04:02:21;7.50;;;6.53;;
15679;SDS011;15488;48.114;11.532;2023-06-10T04:04:48;7.37;;;6.27;;
15679;SDS011;15488;48.114;11.532;2023-06-10T04:07:17;6.70;;;6.00;;
15679;SDS011;15488;48.114;11.532;2023-06-10T04:09:47;7.43;;;6.73;;
15679;SDS011;15488;48.114;11.532;2023-06-10T04:12:17;7.83;;;6.70;;
15679;SDS011;15488;48.114;11.532;2023-06-10T04:14:44;8.27;;;6.30;;
15679;SDS011;15488;48.114;11.532;2023-06-10T04:17:12;7.83;;;7.03;;
15679;SDS011;15488;48.114;11.532;2023-06-10T04:19:39;7.03;;;6.33;;
15679;SDS011;15488;48.114;11.532;2023-06-10T04:22:07;7.93;;;7.13;;
15679;SDS011;15488;48.114;11.532;2023-06-10T04:24:34;7.27;;;6.43;;
15679;SDS011;15488;48.114;11.532;2023-06-10T04:27:02;7.23;;;6.53;;
15679;SDS011;15488;48.114;11.532;2023-06-10T04:29:31;8.07;;;6.83;;
15679;SDS011;15488;48.114;11.532;2023-06-10T04:31:59;7.83;;;7.03;;
15679;SDS011;15488;48.114;11.532;2023-06-10T04:34:26;8.43;;;7.00;;
15679;SDS011;15488;48.114;11.532;2023-06-10T04:36:54;8.07;;;7.27;;
15679;SDS011;15488;48.114;11.532;2023-06-10T04:39:21;7.93;;;6.97;;
15679;SDS011;15488;48.114;11.532;2023-06-10T04:41:49;7.50;;;6.77;;
15679;SDS011;15488;48.114;11.532;2023-06-10T04:44:16;7.60;;;6.80;;
15679;SDS011;15488;48.114;11.532;2023-06-10T04:46:46;7.43;;;6.63;;
15679;SDS011;15488;48.114;11.532;2023-06-10T04:49:13;7.80;;;7.00;;
15679;SDS011;15488;48.114;11.532;2023-06-10T04:51:41;8.33;;;7.40;;
15679;SDS011;15488;48.114;11.532;2023-06-10T04:54:09;7.43;;;6.73;;
15679;SDS011;15488;48.114;11.532;2023-06-10T04:56:36;7.43;;;6.73;;
15679;SDS011;15488;48.114;11.532;2023-06-10T04:59:04;7.73;;;6.93;;
15679;SDS011;15488;48.114;11.532;2023-06-10T05:01:31;7.43;;;6.70;;
15679;SDS011;15488;48.114;11.532;2023-06-10T05:04:00;8.03;;;7.23;;
15679;SDS011;15488;48.114;11.532;2023-06-10T05:06:29;7.70;;;6.90;;
15679;SDS011;15488;48.114;11.532;2023-06-10T05:08:56;7.80;;;7.00;;
15679;SDS011;15488;48.114;11.532;2023-06-10T05:11:24;7.33;;;6.63;;
15679;SDS011;15488;48.114;11.532;2023-06-10T05:13:51;8.00;;;7.20;;
15679;SDS011;15488;48.114;11.532;2023-06-10T05:16:19;9.17;;;7.50;;
15679;SDS011;15488;48.114;11.532;2023-06-10T05:18:47;7.90;;;6.97;;
15679;SDS011;15488;48.114;11.532;2023-06-10T05:21:17;7.77;;;6.97;;
15679;SDS011;15488;48.114;11.532;2023-06-10T05:23:45;7.43;;;6.73;;
15679;SDS011;15488;48.114;11.532;2023-06-10T05:26:13;8.30;;;7.50;;
15679;SDS011;15488;48.114;11.532;2023-06-10T05:28:40;8.00;;;7.20;;
15679;SDS011;15488;48.114;11.532;2023-06-10T05:31:08;9.13;;;7.47;;
15679;SDS011;15488;48.114;11.532;2023-06-10T05:33:36;8.33;;;7.53;;
15679;SDS011;15488;48.114;11.532;2023-06-10T05:36:03;7.57;;;6.87;;
15679;SDS011;15488;48.114;11.532;2023-06-10T05:38:33;8.27;;;7.47;;
15679;SDS011;15488;48.114;11.532;2023-06-10T05:41:00;9.23;;;7.40;;
15679;SDS011;15488;48.114;11.532;2023-06-10T05:43:28;8.10;;;7.30;;
15679;SDS011;15488;48.114;11.532;2023-06-10T05:45:55;8.17;;;7.37;;
15679;SDS011;15488;48.114;11.532;2023-06-10T05:48:23;8.80;;;7.50;;
15679;SDS011;15488;48.114;11.532;2023-06-10T05:50:50;8.33;;;7.53;;
15679;SDS011;15488;48.114;11.532;2023-06-10T05:53:18;8.37;;;7.47;;
15679;SDS011;15488;48.114;11.532;2023-06-10T05:55:47;7.97;;;7.17;;
15679;SDS011;15488;48.114;11.532;2023-06-10T05:58:14;8.73;;;7.83;;
15679;SDS011;15488;48.114;11.532;2023-06-10T06:00:42;8.90;;;8.10;;
15679;SDS011;15488;48.114;11.532;2023-06-10T06:03:10;7.93;;;6.93;;
15679;SDS011;15488;48.114;11.532;2023-06-10T06:05:37;8.13;;;7.33;;
15679;SDS011;15488;48.114;11.532;2023-06-10T06:08:04;8.20;;;7.33;;
15679;SDS011;15488;48.114;11.532;2023-06-10T06:10:32;7.83;;;7.07;;
15679;SDS011;15488;48.114;11.532;2023-06-10T06:13:01;8.20;;;7.40;;
15679;SDS011;15488;48.114;11.532;2023-06-10T06:15:29;8.97;;;7.57;;
15679;SDS011;15488;48.114;11.532;2023-06-10T06:17:56;7.90;;;7.10;;
15679;SDS011;15488;48.114;11.532;2023-06-10T06:20:24;8.57;;;7.67;;
15679;SDS011;15488;48.114;11.532;2023-06-10T06:22:51;8.00;;;7.20;;
15679;SDS011;15488;48.114;11.532;2023-06-10T06:25:19;10.57;;;7.47;;
15679;SDS011;15488;48.114;11.532;2023-06-10T06:27:46;7.93;;;7.13;;
15679;SDS011;15488;48.114;11.532;2023-06-10T06:30:15;8.63;;;7.80;;
15679;SDS011;15488;48.114;11.532;2023-06-10T06:32:43;8.13;;;7.33;;
15679;SDS011;15488;48.114;11.532;2023-06-10T06:35:11;8.80;;;7.90;;
15679;SDS011;15488;48.114;11.532;2023-06-10T06:37:38;8.03;;;7.23;;
15679;SDS011;15488;48.114;11.532;2023-06-10T06:40:06;9.37;;;7.67;;
15679;SDS011;15488;48.114;11.532;2023-06-10T06:42:34;7.97;;;7.17;;
15679;SDS011;15488;48.114;11.532;2023-06-10T06:45:02;7.97;;;7.20;;
15679;SDS011;15488;48.114;11.532;2023-06-10T06:47:32;7.07;;;6.37;;
15679;SDS011;15488;48.114;11.532;2023-06-10T06:49:59;9.43;;;7.17;;
15679;SDS011;15488;48.114;11.532;2023-06-10T06:52:27;7.60;;;6.53;;
15679;SDS011;15488;48.114;11.532;2023-06-10T06:54:54;7.80;;;7.03;;
15679;SDS011;15488;48.114;11.532;2023-06-10T06:57:25;7.73;;;6.93;;
15679;SDS011;15488;48.114;11.532;2023-06-10T06:59:52;9.67;;;7.03;;
15679;SDS011;15488;48.114;11.532;2023-06-10T07:02:20;7.80;;;7.00;;
15679;SDS011;15488;48.114;11.532;2023-06-10T07:04:49;8.80;;;7.20;;
15679;SDS011;15488;48.114;11.532;2023-06-10T07:07:21;7.50;;;6.53;;
15679;SDS011;15488;48.114;11.532;2023-06-10T07:09:48;8.67;;;7.17;;
15679;SDS011;15488;48.114;11.532;2023-06-10T07:12:16;8.13;;;7.23;;
15679;SDS011;15488;48.114;11.532;2023-06-10T07:14:43;7.67;;;6.93;;
15679;SDS011;15488;48.114;11.532;2023-06-10T07:17:11;7.80;;;7.03;;
15679;SDS011;15488;48.114;11.532;2023-06-10T07:19:38;8.07;;;7.20;;
15679;SDS011;15488;48.114;11.532;2023-06-10T07:22:07;12.30;;;8.57;;
15679;SDS011;15488;48.114;11.532;2023-06-10T07:24:35;8.53;;;7.63;;
15679;SDS011;15488;48.114;11.532;2023-06-10T07:27:02;7.77;;;7.03;;
15679;SDS011;15488;48.114;11.532;2023-06-10T07:29:30;7.60;;;6.83;;
15679;SDS011;15488;48.114;11.532;2023-06-10T07:31:58;7.40;;;6.60;;
15679;SDS011;15488;48.114;11.532;2023-06-10T07:34:25;8.10;;;7.30;;
15679;SDS011;15488;48.114;11.532;2023-06-10T07:36:53;7.73;;;6.93;;
15679;SDS011;15488;48.114;11.532;2023-06-10T07:39:22;7.23;;;6.50;;
15679;SDS011;15488;48.114;11.532;2023-06-10T07:41:49;7.10;;;6.40;;
15679;SDS011;15488;48.114;11.532;2023-06-10T07:44:18;7.57;;;6.33;;
15679;SDS011;15488;48.114;11.532;2023-06-10T07:46:46;7.07;;;6.37;;
15679;SDS011;15488;48.114;11.532;2023-06-10T07:49:13;6.63;;;6.03;;
15679;SDS011;15488;48.114;11.532;2023-06-10T07:51:41;6.57;;;5.97;;
15679;SDS011;15488;48.114;11.532;2023-06-10T07:54:08;8.33;;;7.50;;
15679;SDS011;15488;48.114;11.532;2023-06-10T07:56:38;10.20;;;9.13;;
15679;SDS011;15488;48.114;11.532;2023-06-10T07:59:06;7.43;;;6.73;;
15679;SDS011;15488;48.114;11.532;2023-06-10T08:01:33;7.03;;;6.33;;
15679;SDS011;15488;48.114;11.532;2023-06-10T08:04:03;6.63;;;6.03;;
15679;SDS011;15488;48.114;11.532;2023-06-10T08:06:31;6.73;;;6.07;;
15679;SDS011;15488;48.114;11.532;2023-06-10T08:08:58;6.17;;;5.57;;
15679;SDS011;15488;48.114;11.532;2023-06-10T08:11:26;7.83;;;6.27;;
15679;SDS011;15488;48.114;11.532;2023-06-10T08:13:56;7.97;;;6.53;;
15679;SDS011;15488;48.114;11.532;2023-06-10T08:16:23;7.37;;;5.97;;
15679;SDS011;15488;48.114;11.532;2023-06-10T08:18:50;7.27;;;6.37;;
15679;SDS011;15488;48.114;11.532;2023-06-10T08:21:18;8.37;;;6.13;;
15679;SDS011;15488;48.114;11.532;2023-06-10T08:23:46;6.43;;;5.83;;
15679;SDS011;15488;48.114;11.532;2023-06-10T08:26:13;6.23;;;5.63;;
15679;SDS011;15488;48.114;11.532;2023-06-10T08:28:41;6.10;;;5.50;;
15679;SDS011;15488;48.114;11.532;2023-06-10T08:31:09;6.40;;;5.57;;
15679;SDS011;15488;48.114;11.532;2023-06-10T08:33:37;6.03;;;5.43;;
15679;SDS011;15488;48.114;11.532;2023-06-10T08:36:04;6.43;;;5.50;;
15679;SDS011;15488;48.114;11.532;2023-06-10T08:38:32;6.70;;;6.03;;
15679;SDS011;15488;48.114;11.532;2023-06-10T08:41:00;7.80;;;7.10;;
15679;SDS011;15488;48.114;11.532;2023-06-10T08:43:31;6.50;;;5.90;;
15679;SDS011;15488;48.114;11.532;2023-06-10T08:46:00;5.80;;;5.20;;
15679;SDS011;15488;48.114;11.532;2023-06-10T08:48:30;5.90;;;5.03;;
15679;SDS011;15488;48.114;11.532;2023-06-10T08:51:00;5.43;;;4.93;;
15679;SDS011;15488;48.114;11.532;2023-06-10T08:53:29;5.67;;;5.00;;
15679;SDS011;15488;48.114;11.532;2023-06-10T08:56:00;6.37;;;5.77;;
15679;SDS011;15488;48.114;11.532;2023-06-10T08:58:31;5.70;;;5.10;;
15679;SDS011;15488;48.114;11.532;2023-06-10T09:01:05;8.77;;;7.90;;
15679;SDS011;15488;48.114;11.532;2023-06-10T09:03:34;6.87;;;5.17;;
15679;SDS011;15488;48.114;11.532;2023-06-10T09:06:04;5.80;;;5.30;;
15679;SDS011;15488;48.114;11.532;2023-06-10T09:08:33;5.77;;;5.10;;
15679;SDS011;15488;48.114;11.532;2023-06-10T09:11:01;5.53;;;5.03;;
15679;SDS011;15488;48.114;11.532;2023-06-10T09:13:28;6.67;;;5.20;;
15679;SDS011;15488;48.114;11.532;2023-06-10T09:15:56;10.63;;;8.97;;
15679;SDS011;15488;48.114;11.532;2023-06-10T09:18:26;11.43;;;9.23;;
15679;SDS011;15488;48.114;11.532;2023-06-10T09:20:55;7.50;;;6.80;;
15679;SDS011;15488;48.114;11.532;2023-06-10T09:23:22;9.10;;;7.60;;
15679;SDS011;15488;48.114;11.532;2023-06-10T09:25:55;7.00;;;6.20;;
15679;SDS011;15488;48.114;11.532;2023-06-10T09:28:24;5.70;;;5.20;;
15679;SDS011;15488;48.114;11.532;2023-06-10T09:31:01;6.00;;;5.40;;
15679;SDS011;15488;48.114;11.532;2023-06-10T09:33:32;5.80;;;5.20;;
15679;SDS011;15488;48.114;11.532;2023-06-10T09:36:04;5.63;;;5.10;;
15679;SDS011;15488;48.114;11.532;2023-06-10T09:38:32;5.40;;;4.90;;
15679;SDS011;15488;48.114;11.532;2023-06-10T09:41:00;5.83;;;5.30;;
15679;SDS011;15488;48.114;11.532;2023-06-10T09:43:38;5.60;;;5.10;;
15679;SDS011;15488;48.114;11.532;2023-06-10T09:46:13;5.63;;;4.97;;
15679;SDS011;15488;48.114;11.532;2023-06-10T09:48:44;5.47;;;4.97;;
15679;SDS011;15488;48.114;11.532;2023-06-10T09:51:14;5.60;;;4.90;;
15679;SDS011;15488;48.114;11.532;2023-06-10T09:53:42;5.30;;;4.73;;
15679;SDS011;15488;48.114;11.532;2023-06-10T09:56:13;5.60;;;5.00;;
15679;SDS011;15488;48.114;11.532;2023-06-10T09:58:41;4.78;;;4.28;;
15679;SDS011;15488;48.114;11.532;2023-06-10T10:01:11;4.90;;;4.50;;
15679;SDS011;15488;48.114;11.532;2023-06-10T10:03:44;4.73;;;4.33;;
15679;SDS011;15488;48.114;11.532;2023-06-10T10:06:13;5.43;;;4.93;;
15679;SDS011;15488;48.114;11.532;2023-06-10T10:08:43;4.57;;;4.17;;
15679;SDS011;15488;48.114;11.532;2023-06-10T10:11:10;4.93;;;4.38;;
15679;SDS011;15488;48.114;11.532;2023-06-10T10:13:40;5.15;;;4.40;;
15679;SDS011;15488;48.114;11.532;2023-06-10T10:16:11;4.80;;;4.40;;
15679;SDS011;15488;48.114;11.532;2023-06-10T10:18:43;4.38;;;3.97;;
15679;SDS011;15488;48.114;11.532;2023-06-10T10:21:17;5.00;;;3.67;;
15679;SDS011;15488;48.114;11.532;2023-06-10T10:23:52;5.30;;;3.83;;
15679;SDS011;15488;48.114;11.532;2023-06-10T10:26:25;4.35;;;4.03;;
15679;SDS011;15488;48.114;11.532;2023-06-10T10:28:58;4.00;;;3.60;;
15679;SDS011;15488;48.114;11.532;2023-06-10T10:31:31;5.00;;;3.90;;
15679;SDS011;15488;48.114;11.532;2023-06-10T10:34:01;4.18;;;3.78;;
15679;SDS011;15488;48.114;11.532;2023-06-10T10:36:33;4.07;;;3.67;;
15679;SDS011;15488;48.114;11.532;2023-06-10T10:39:02;4.20;;;3.80;;
15679;SDS011;15488;48.114;11.532;2023-06-10T10:41:31;4.65;;;4.25;;
15679;SDS011;15488;48.114;11.532;2023-06-10T10:44:00;3.97;;;3.67;;
15679;SDS011;15488;48.114;11.532;2023-06-10T10:46:30;3.92;;;3.63;;
15679;SDS011;15488;48.114;11.532;2023-06-10T10:49:07;4.28;;;3.70;;
15679;SDS011;15488;48.114;11.532;2023-06-10T10:51:39;3.70;;;3.40;;
15679;SDS011;15488;48.114;11.532;2023-06-10T10:54:28;4.40;;;4.00;;
15679;SDS011;15488;48.114;11.532;2023-06-10T10:57:09;3.80;;;3.50;;
15679;SDS011;15488;48.114;11.532;2023-06-10T10:59:44;3.80;;;3.50;;
15679;SDS011;15488;48.114;11.532;2023-06-10T11:02:17;3.97;;;3.67;;
15679;SDS011;15488;48.114;11.532;2023-06-10T11:04:45;4.68;;;3.88;;
15679;SDS011;15488;48.114;11.532;2023-06-10T11:07:15;3.65;;;3.35;;
15679;SDS011;15488;48.114;11.532;2023-06-10T11:09:59;4.30;;;3.90;;
15679;SDS011;15488;48.114;11.532;2023-06-10T11:12:39;4.18;;;3.78;;
15679;SDS011;15488;48.114;11.532;2023-06-10T11:15:08;3.78;;;3.47;;
15679;SDS011;15488;48.114;11.532;2023-06-10T11:17:36;4.03;;;3.72;;
15679;SDS011;15488;48.114;11.532;2023-06-10T11:20:03;3.88;;;3.58;;
15679;SDS011;15488;48.114;11.532;2023-06-10T11:22:42;4.05;;;3.75;;
15679;SDS011;15488;48.114;11.532;2023-06-10T11:25:36;3.97;;;3.67;;
15679;SDS011;15488;48.114;11.532;2023-06-10T11:28:14;3.97;;;3.67;;
15679;SDS011;15488;48.114;11.532;2023-06-10T11:30:44;3.67;;;3.38;;
15679;SDS011;15488;48.114;11.532;2023-06-10T11:33:14;4.03;;;3.72;;
15679;SDS011;15488;48.114;11.532;2023-06-10T11:35:43;4.50;;;4.10;;
15679;SDS011;15488;48.114;11.532;2023-06-10T11:38:12;3.70;;;3.40;;
15679;SDS011;15488;48.114;11.532;2023-06-10T11:40:40;3.80;;;3.50;;
15679;SDS011;15488;48.114;11.532;2023-06-10T11:43:12;3.78;;;3.47;;
15679;SDS011;15488;48.114;11.532;2023-06-10T11:45:40;20.13;;;4.43;;
15679;SDS011;15488;48.114;11.532;2023-06-10T11:48:08;4.90;;;4.10;;
15679;SDS011;15488;48.114;11.532;2023-06-10T11:50:36;4.50;;;3.92;;
15679;SDS011;15488;48.114;11.532;2023-06-10T11:53:04;3.67;;;3.38;;
15679;SDS011;15488;48.114;11.532;2023-06-10T11:55:45;3.75;;;3.45;;
15679;SDS011;15488;48.114;11.532;2023-06-10T11:58:13;4.20;;;3.90;;
15679;SDS011;15488;48.114;11.532;2023-06-10T12:00:44;4.60;;;3.83;;
15679;SDS011;15488;48.114;11.532;2023-06-10T12:03:12;4.10;;;3.70;;
15679;SDS011;15488;48.114;11.532;2023-06-10T12:05:40;5.35;;;3.47;;
15679;SDS011;15488;48.114;11.532;2023-06-10T12:08:19;3.80;;;3.50;;
15679;SDS011;15488;48.114;11.532;2023-06-10T12:10:48;3.50;;;3.25;;
15679;SDS011;15488;48.114;11.532;2023-06-10T12:13:16;3.60;;;3.30;;
15679;SDS011;15488;48.114;11.532;2023-06-10T12:15:43;3.70;;;3.35;;
15679;SDS011;15488;48.114;11.532;2023-06-10T12:18:15;3.60;;;3.30;;
15679;SDS011;15488;48.114;11.532;2023-06-10T12:20:43;3.50;;;3.20;;
15679;SDS011;15488;48.114;11.532;2023-06-10T12:23:12;3.50;;;3.20;;
15679;SDS011;15488;48.114;11.532;2023-06-10T12:25:47;3.40;;;3.10;;
15679;SDS011;15488;48.114;11.532;2023-06-10T12:28:20;3.33;;;3.03;;
15679;SDS011;15488;48.114;11.532;2023-06-10T12:30:48;3.38;;;3.17;;
15679;SDS011;15488;48.114;11.532;2023-06-10T12:33:16;3.50;;;3.20;;
15679;SDS011;15488;48.114;11.532;2023-06-10T12:35:46;3.70;;;3.40;;
15679;SDS011;15488;48.114;11.532;2023-06-10T12:38:20;3.20;;;3.00;;
15679;SDS011;15488;48.114;11.532;2023-06-10T12:40:50;3.08;;;2.88;;
15679;SDS011;15488;48.114;11.532;2023-06-10T12:43:22;3.38;;;3.17;;
15679;SDS011;15488;48.114;11.532;2023-06-10T12:45:51;3.53;;;3.22;;
15679;SDS011;15488;48.114;11.532;2023-06-10T12:48:19;3.20;;;3.00;;
15679;SDS011;15488;48.114;11.532;2023-06-10T12:50:50;3.10;;;2.90;;
15679;SDS011;15488;48.114;11.532;2023-06-10T12:53:19;2.92;;;2.72;;
15679;SDS011;15488;48.114;11.532;2023-06-10T12:55:48;3.28;;;3.08;;
15679;SDS011;15488;48.114;11.532;2023-06-10T12:58:17;3.30;;;3.00;;
15679;SDS011;15488;48.114;11.532;2023-06-10T13:00:45;3.20;;;3.00;;
15679;SDS011;15488;48.114;11.532;2023-06-10T13:03:13;3.10;;;2.80;;
15679;SDS011;15488;48.114;11.532;2023-06-10T13:05:41;2.83;;;2.63;;
15679;SDS011;15488;48.114;11.532;2023-06-10T13:08:09;2.92;;;2.72;;
15679;SDS011;15488;48.114;11.532;2023-06-10T13:10:36;2.83;;;2.63;;
15679;SDS011;15488;48.114;11.532;2023-06-10T13:13:05;2.90;;;2.70;;
15679;SDS011;15488;48.114;11.532;2023-06-10T13:15:34;3.10;;;2.90;;
15679;SDS011;15488;48.114;11.532;2023-06-10T13:18:02;6.03;;;5.53;;
15679;SDS011;15488;48.114;11.532;2023-06-10T13:20:30;6.70;;;4.70;;
15679;SDS011;15488;48.114;11.532;2023-06-10T13:22:57;3.88;;;3.63;;
15679;SDS011;15488;48.114;11.532;2023-06-10T13:25:25;4.68;;;4.28;;
15679;SDS011;15488;48.114;11.532;2023-06-10T13:27:52;4.78;;;4.38;;
15679;SDS011;15488;48.114;11.532;2023-06-10T13:30:22;4.53;;;4.13;;
15679;SDS011;15488;48.114;11.532;2023-06-10T13:32:49;4.28;;;3.95;;
15679;SDS011;15488;48.114;11.532;2023-06-10T13:35:17;4.43;;;4.03;;
15679;SDS011;15488;48.114;11.532;2023-06-10T13:37:44;4.65;;;4.25;;
15679;SDS011;15488;48.114;11.532;2023-06-10T13:40:12;4.50;;;4.10;;
15679;SDS011;15488;48.114;11.532;2023-06-10T13:42:39;4.38;;;4.07;;
15679;SDS011;15488;48.114;11.532;2023-06-10T13:45:07;4.40;;;4.10;;
15679;SDS011;15488;48.114;11.532;2023-06-10T13:47:36;5.47;;;5.07;;
15679;SDS011;15488;48.114;11.532;2023-06-10T13:50:04;3.97;;;3.78;;
15679;SDS011;15488;48.114;11.532;2023-06-10T13:52:32;7.80;;;7.30;;
15679;SDS011;15488;48.114;11.532;2023-06-10T13:55:00;7.45;;;6.85;;
15679;SDS011;15488;48.114;11.532;2023-06-10T13:57:27;7.80;;;7.30;;
15679;SDS011;15488;48.114;11.532;2023-06-10T13:59:55;7.57;;;7.18;;
15679;SDS011;15488;48.114;11.532;2023-06-10T14:02:22;7.25;;;6.85;;
15679;SDS011;15488;48.114;11.532;2023-06-10T14:04:51;7.90;;;7.47;;
15679;SDS011;15488;48.114;11.532;2023-06-10T14:07:18;7.35;;;6.85;;
15679;SDS011;15488;48.114;11.532;2023-06-10T14:09:46;6.72;;;6.32;;
15679;SDS011;15488;48.114;11.532;2023-06-10T14:12:13;6.65;;;6.35;;
15679;SDS011;15488;48.114;11.532;2023-06-10T14:14:41;6.95;;;6.53;;
15679;SDS011;15488;48.114;11.532;2023-06-10T14:17:08;6.05;;;5.75;;
15679;SDS011;15488;48.114;11.532;2023-06-10T14:19:36;6.43;;;6.13;;
15679;SDS011;15488;48.114;11.532;2023-06-10T14:22:06;6.13;;;5.80;;
15679;SDS011;15488;48.114;11.532;2023-06-10T14:24:34;5.65;;;5.25;;
15679;SDS011;15488;48.114;11.532;2023-06-10T14:27:02;5.32;;;5.03;;
15679;SDS011;15488;48.114;11.532;2023-06-10T14:29:31;5.35;;;5.05;;
15679;SDS011;15488;48.114;11.532;2023-06-10T14:31:58;5.55;;;5.25;;
15679;SDS011;15488;48.114;11.532;2023-06-10T14:34:26;5.90;;;5.53;;
15679;SDS011;15488;48.114;11.532;2023-06-10T14:36:58;5.45;;;5.15;;
15679;SDS011;15488;48.114;11.532;2023-06-10T14:39:27;5.40;;;5.10;;
15679;SDS011;15488;48.114;11.532;2023-06-10T14:41:54;6.40;;;6.10;;
15679;SDS011;15488;48.114;11.532;2023-06-10T14:44:22;6.15;;;5.80;;